sensor_id;sensor_type;location;lat;lon;timestamp;temperature;humidity
27534;DHT22;14973;51.460;7.008;2023-02-01T00:01:41;6.00;99.90
27534;DHT22;14973;51.460;7.008;2023-02-01T00:04:06;6.00;99.90
27534;DHT22;14973;51.460;7.008;2023-02-01T00:06:32;6.10;99.90
27534;DHT22;14973;51.460;7.008;2023-02-01T00:08:58;6.10;99.90
27534;DHT22;14973;51.460;7.008;2023-02-01T00:11:24;6.20;99.90
27534;DHT22;14973;51.460;7.008;2023-02-01T00:13:50;6.10;99.90
27534;DHT22;14973;51.460;7.008;2023-02-01T00:16:24;6.10;99.90
27534;DHT22;14973;51.460;7.008;2023-02-01T00:18:55;6.10;99.90
27534;DHT22;14973;51.460;7.008;2023-02-01T00:21:21;6.10;99.90
27534;DHT22;14973;51.460;7.008;2023-02-01T00:23:47;6.10;99.90
27534;DHT22;14973;51.460;7.008;2023-02-01T00:26:18;6.10;99.90
27534;DHT22;14973;51.460;7.008;2023-02-01T00:28:44;6.20;99.90
27534;DHT22;14973;51.460;7.008;2023-02-01T00:31:09;6.20;99.90
27534;DHT22;14973;51.460;7.008;2023-02-01T00:33:35;6.10;99.90
27534;DHT22;14973;51.460;7.008;2023-02-01T00:36:04;6.10;99.90
27534;DHT22;14973;51.460;7.008;2023-02-01T00:38:31;6.20;99.90
27534;DHT22;14973;51.460;7.008;2023-02-01T00:41:06;6.10;99.90
27534;DHT22;14973;51.460;7.008;2023-02-01T00:43:32;6.20;99.90
27534;DHT22;14973;51.460;7.008;2023-02-01T00:45:58;6.20;99.90
27534;DHT22;14973;51.460;7.008;2023-02-01T00:48:24;6.10;99.90
27534;DHT22;14973;51.460;7.008;2023-02-01T00:50:50;6.10;99.90
27534;DHT22;14973;51.460;7.008;2023-02-01T00:53:16;6.00;99.90
27534;DHT22;14973;51.460;7.008;2023-02-01T00:55:45;6.00;99.90
27534;DHT22;14973;51.460;7.008;2023-02-01T00:58:10;5.90;99.90
27534;DHT22;14973;51.460;7.008;2023-02-01T01:00:36;6.00;99.90
27534;DHT22;14973;51.460;7.008;2023-02-01T01:03:02;6.10;99.90
27534;DHT22;14973;51.460;7.008;2023-02-01T01:05:27;6.10;99.90
27534;DHT22;14973;51.460;7.008;2023-02-01T01:07:53;6.10;99.90
27534;DHT22;14973;51.460;7.008;2023-02-01T01:10:19;6.10;99.90
27534;DHT22;14973;51.460;7.008;2023-02-01T01:12:45;6.20;99.90
27534;DHT22;14973;51.460;7.008;2023-02-01T01:15:11;6.20;99.90
27534;DHT22;14973;51.460;7.008;2023-02-01T01:17:36;6.30;99.90
27534;DHT22;14973;51.460;7.008;2023-02-01T01:20:03;6.30;99.90
27534;DHT22;14973;51.460;7.008;2023-02-01T01:22:28;6.30;99.90
27534;DHT22;14973;51.460;7.008;2023-02-01T01:24:54;6.20;99.90
27534;DHT22;14973;51.460;7.008;2023-02-01T01:27:19;6.30;99.90
27534;DHT22;14973;51.460;7.008;2023-02-01T01:29:49;6.40;99.90
27534;DHT22;14973;51.460;7.008;2023-02-01T01:32:15;6.40;99.90
27534;DHT22;14973;51.460;7.008;2023-02-01T01:34:41;6.40;99.90
27534;DHT22;14973;51.460;7.008;2023-02-01T01:37:06;6.40;99.90
27534;DHT22;14973;51.460;7.008;2023-02-01T01:39:32;6.50;99.90
27534;DHT22;14973;51.460;7.008;2023-02-01T01:41:57;6.40;99.90
27534;DHT22;14973;51.460;7.008;2023-02-01T01:45:02;6.50;99.90
27534;DHT22;14973;51.460;7.008;2023-02-01T01:47:38;6.40;99.90
27534;DHT22;14973;51.460;7.008;2023-02-01T01:50:09;6.30;99.90
27534;DHT22;14973;51.460;7.008;2023-02-01T01:52:37;6.30;99.90
27534;DHT22;14973;51.460;7.008;2023-02-01T01:55:04;6.30;99.90
27534;DHT22;14973;51.460;7.008;2023-02-01T01:57:40;6.30;99.90
27534;DHT22;14973;51.460;7.008;2023-02-01T02:00:11;6.30;99.90
27534;DHT22;14973;51.460;7.008;2023-02-01T02:02:39;6.30;99.90
27534;DHT22;14973;51.460;7.008;2023-02-01T02:05:06;6.30;99.90
27534;DHT22;14973;51.460;7.008;2023-02-01T02:07:35;6.20;99.90
27534;DHT22;14973;51.460;7.008;2023-02-01T02:10:05;6.20;99.90
27534;DHT22;14973;51.460;7.008;2023-02-01T02:12:31;6.20;99.90
27534;DHT22;14973;51.460;7.008;2023-02-01T02:14:57;6.20;99.90
27534;DHT22;14973;51.460;7.008;2023-02-01T02:17:53;6.20;99.90
27534;DHT22;14973;51.460;7.008;2023-02-01T02:31:22;6.00;99.90
27534;DHT22;14973;51.460;7.008;2023-02-01T02:42:43;6.00;99.90
27534;DHT22;14973;51.460;7.008;2023-02-01T02:45:40;6.00;99.90
27534;DHT22;14973;51.460;7.008;2023-02-01T02:48:47;6.00;99.90
27534;DHT22;14973;51.460;7.008;2023-02-01T02:54:47;6.00;99.90
27534;DHT22;14973;51.460;7.008;2023-02-01T02:57:24;6.00;99.90
27534;DHT22;14973;51.460;7.008;2023-02-01T03:00:12;6.00;99.90
27534;DHT22;14973;51.460;7.008;2023-02-01T03:02:58;5.90;99.90
27534;DHT22;14973;51.460;7.008;2023-02-01T03:05:47;5.80;99.90
27534;DHT22;14973;51.460;7.008;2023-02-01T03:13:35;5.60;99.90
27534;DHT22;14973;51.460;7.008;2023-02-01T03:16:15;5.50;99.90
27534;DHT22;14973;51.460;7.008;2023-02-01T03:21:50;5.50;99.90
27534;DHT22;14973;51.460;7.008;2023-02-01T03:24:25;5.60;99.90
27534;DHT22;14973;51.460;7.008;2023-02-01T03:27:02;5.60;99.90
27534;DHT22;14973;51.460;7.008;2023-02-01T03:29:38;5.60;99.90
27534;DHT22;14973;51.460;7.008;2023-02-01T03:32:05;5.70;99.90
27534;DHT22;14973;51.460;7.008;2023-02-01T03:34:31;5.70;99.90
27534;DHT22;14973;51.460;7.008;2023-02-01T03:37:08;5.70;99.90
27534;DHT22;14973;51.460;7.008;2023-02-01T03:39:47;5.80;99.90
27534;DHT22;14973;51.460;7.008;2023-02-01T03:42:19;5.80;99.90
27534;DHT22;14973;51.460;7.008;2023-02-01T03:47:27;5.80;99.90
27534;DHT22;14973;51.460;7.008;2023-02-01T03:49:57;5.80;99.90
27534;DHT22;14973;51.460;7.008;2023-02-01T03:52:46;5.90;99.90
27534;DHT22;14973;51.460;7.008;2023-02-01T03:55:15;5.90;99.90
27534;DHT22;14973;51.460;7.008;2023-02-01T03:57:46;6.00;99.90
27534;DHT22;14973;51.460;7.008;2023-02-01T04:00:22;6.00;99.90
27534;DHT22;14973;51.460;7.008;2023-02-01T04:02:48;5.90;99.90
27534;DHT22;14973;51.460;7.008;2023-02-01T04:05:14;5.90;99.90
27534;DHT22;14973;51.460;7.008;2023-02-01T04:07:40;5.90;99.90
27534;DHT22;14973;51.460;7.008;2023-02-01T04:10:06;5.90;99.90
27534;DHT22;14973;51.460;7.008;2023-02-01T04:12:32;5.80;99.90
27534;DHT22;14973;51.460;7.008;2023-02-01T04:14:58;5.90;99.90
27534;DHT22;14973;51.460;7.008;2023-02-01T04:17:23;5.90;99.90
27534;DHT22;14973;51.460;7.008;2023-02-01T04:19:49;5.90;99.90
27534;DHT22;14973;51.460;7.008;2023-02-01T04:22:15;5.90;99.90
27534;DHT22;14973;51.460;7.008;2023-02-01T04:24:40;5.90;99.90
27534;DHT22;14973;51.460;7.008;2023-02-01T04:27:06;5.90;99.90
27534;DHT22;14973;51.460;7.008;2023-02-01T04:29:32;6.00;99.90
27534;DHT22;14973;51.460;7.008;2023-02-01T04:31:57;6.00;99.90
27534;DHT22;14973;51.460;7.008;2023-02-01T04:34:23;6.00;99.90
27534;DHT22;14973;51.460;7.008;2023-02-01T04:36:50;6.00;99.90
27534;DHT22;14973;51.460;7.008;2023-02-01T04:39:16;6.00;99.90
27534;DHT22;14973;51.460;7.008;2023-02-01T04:41:41;5.90;99.90
27534;DHT22;14973;51.460;7.008;2023-02-01T04:44:13;5.90;99.90
27534;DHT22;14973;51.460;7.008;2023-02-01T04:46:39;5.80;99.90
27534;DHT22;14973;51.460;7.008;2023-02-01T04:49:05;5.80;99.90
27534;DHT22;14973;51.460;7.008;2023-02-01T04:51:31;5.80;99.90
27534;DHT22;14973;51.460;7.008;2023-02-01T04:53:56;5.90;99.90
27534;DHT22;14973;51.460;7.008;2023-02-01T04:56:22;5.90;99.90
27534;DHT22;14973;51.460;7.008;2023-02-01T04:58:48;5.90;99.90
27534;DHT22;14973;51.460;7.008;2023-02-01T05:01:13;5.90;99.90
27534;DHT22;14973;51.460;7.008;2023-02-01T05:03:39;6.00;99.90
27534;DHT22;14973;51.460;7.008;2023-02-01T05:06:04;6.00;99.90
27534;DHT22;14973;51.460;7.008;2023-02-01T05:08:31;6.00;99.90
27534;DHT22;14973;51.460;7.008;2023-02-01T05:10:56;6.00;99.90
27534;DHT22;14973;51.460;7.008;2023-02-01T05:13:24;5.90;99.90
27534;DHT22;14973;51.460;7.008;2023-02-01T05:16:08;5.90;99.90
27534;DHT22;14973;51.460;7.008;2023-02-01T05:18:34;5.80;99.90
27534;DHT22;14973;51.460;7.008;2023-02-01T05:20:59;5.80;99.90
27534;DHT22;14973;51.460;7.008;2023-02-01T05:23:25;5.70;99.90
27534;DHT22;14973;51.460;7.008;2023-02-01T05:25:50;5.70;99.90
27534;DHT22;14973;51.460;7.008;2023-02-01T05:28:16;5.70;99.90
27534;DHT22;14973;51.460;7.008;2023-02-01T05:30:42;5.70;99.90
27534;DHT22;14973;51.460;7.008;2023-02-01T05:33:07;5.70;99.90
27534;DHT22;14973;51.460;7.008;2023-02-01T05:35:33;5.80;99.90
27534;DHT22;14973;51.460;7.008;2023-02-01T05:37:58;5.70;99.90
27534;DHT22;14973;51.460;7.008;2023-02-01T05:40:24;5.70;99.90
27534;DHT22;14973;51.460;7.008;2023-02-01T05:42:49;5.70;99.90
27534;DHT22;14973;51.460;7.008;2023-02-01T05:45:15;5.70;99.90
27534;DHT22;14973;51.460;7.008;2023-02-01T05:47:41;5.60;99.90
27534;DHT22;14973;51.460;7.008;2023-02-01T05:50:07;5.60;99.90
27534;DHT22;14973;51.460;7.008;2023-02-01T05:52:33;5.60;99.90
27534;DHT22;14973;51.460;7.008;2023-02-01T05:54:59;5.50;99.90
27534;DHT22;14973;51.460;7.008;2023-02-01T05:57:24;5.40;99.90
27534;DHT22;14973;51.460;7.008;2023-02-01T05:59:50;5.40;99.90
27534;DHT22;14973;51.460;7.008;2023-02-01T06:02:16;5.40;99.90
27534;DHT22;14973;51.460;7.008;2023-02-01T06:04:42;5.40;99.90
27534;DHT22;14973;51.460;7.008;2023-02-01T06:07:08;5.40;99.90
27534;DHT22;14973;51.460;7.008;2023-02-01T06:09:35;5.40;99.90
27534;DHT22;14973;51.460;7.008;2023-02-01T06:12:02;5.50;99.90
27534;DHT22;14973;51.460;7.008;2023-02-01T06:14:27;5.50;99.90
27534;DHT22;14973;51.460;7.008;2023-02-01T06:16:54;5.60;99.90
27534;DHT22;14973;51.460;7.008;2023-02-01T06:19:20;5.70;99.90
27534;DHT22;14973;51.460;7.008;2023-02-01T06:21:46;5.70;99.90
27534;DHT22;14973;51.460;7.008;2023-02-01T06:24:12;5.70;99.90
27534;DHT22;14973;51.460;7.008;2023-02-01T06:26:37;5.80;99.90
27534;DHT22;14973;51.460;7.008;2023-02-01T06:29:04;5.80;99.90
27534;DHT22;14973;51.460;7.008;2023-02-01T06:31:29;5.90;99.90
27534;DHT22;14973;51.460;7.008;2023-02-01T06:33:57;5.90;99.90
27534;DHT22;14973;51.460;7.008;2023-02-01T06:36:22;5.90;99.90
27534;DHT22;14973;51.460;7.008;2023-02-01T06:38:48;5.80;99.90
27534;DHT22;14973;51.460;7.008;2023-02-01T06:41:14;5.90;99.90
27534;DHT22;14973;51.460;7.008;2023-02-01T06:43:40;5.90;99.90
27534;DHT22;14973;51.460;7.008;2023-02-01T06:46:11;6.00;99.90
27534;DHT22;14973;51.460;7.008;2023-02-01T06:48:37;6.00;99.90
27534;DHT22;14973;51.460;7.008;2023-02-01T06:51:02;6.00;99.90
27534;DHT22;14973;51.460;7.008;2023-02-01T06:53:29;6.00;99.90
27534;DHT22;14973;51.460;7.008;2023-02-01T06:55:57;6.00;99.90
27534;DHT22;14973;51.460;7.008;2023-02-01T06:58:23;6.00;99.90
27534;DHT22;14973;51.460;7.008;2023-02-01T07:00:49;6.00;99.90
27534;DHT22;14973;51.460;7.008;2023-02-01T07:03:15;6.10;99.90
27534;DHT22;14973;51.460;7.008;2023-02-01T07:05:41;6.10;99.90
27534;DHT22;14973;51.460;7.008;2023-02-01T07:08:07;6.20;99.90
27534;DHT22;14973;51.460;7.008;2023-02-01T07:10:34;6.10;99.90
27534;DHT22;14973;51.460;7.008;2023-02-01T07:13:00;6.10;99.90
27534;DHT22;14973;51.460;7.008;2023-02-01T07:15:25;6.10;99.90
27534;DHT22;14973;51.460;7.008;2023-02-01T07:17:53;6.10;99.90
27534;DHT22;14973;51.460;7.008;2023-02-01T07:20:19;6.20;99.90
27534;DHT22;14973;51.460;7.008;2023-02-01T07:22:44;6.20;99.90
27534;DHT22;14973;51.460;7.008;2023-02-01T07:25:10;6.30;99.90
27534;DHT22;14973;51.460;7.008;2023-02-01T07:27:36;6.20;99.90
27534;DHT22;14973;51.460;7.008;2023-02-01T07:30:06;6.20;99.90
27534;DHT22;14973;51.460;7.008;2023-02-01T07:32:32;6.30;99.90
27534;DHT22;14973;51.460;7.008;2023-02-01T07:34:58;6.30;99.90
27534;DHT22;14973;51.460;7.008;2023-02-01T07:37:24;6.30;99.90
27534;DHT22;14973;51.460;7.008;2023-02-01T07:39:50;6.30;99.90
27534;DHT22;14973;51.460;7.008;2023-02-01T07:42:16;6.30;99.90
27534;DHT22;14973;51.460;7.008;2023-02-01T07:44:42;6.30;99.90
27534;DHT22;14973;51.460;7.008;2023-02-01T07:47:08;6.40;99.90
27534;DHT22;14973;51.460;7.008;2023-02-01T07:49:33;6.30;99.90
27534;DHT22;14973;51.460;7.008;2023-02-01T07:51:59;6.40;99.90
27534;DHT22;14973;51.460;7.008;2023-02-01T07:54:24;6.30;99.90
27534;DHT22;14973;51.460;7.008;2023-02-01T07:56:50;6.30;99.90
27534;DHT22;14973;51.460;7.008;2023-02-01T07:59:16;6.40;99.90
27534;DHT22;14973;51.460;7.008;2023-02-01T08:01:42;6.40;99.90
27534;DHT22;14973;51.460;7.008;2023-02-01T08:04:11;6.40;99.90
27534;DHT22;14973;51.460;7.008;2023-02-01T08:06:37;6.40;99.90
27534;DHT22;14973;51.460;7.008;2023-02-01T08:09:03;6.40;99.90
27534;DHT22;14973;51.460;7.008;2023-02-01T08:11:29;6.40;99.90
27534;DHT22;14973;51.460;7.008;2023-02-01T08:13:55;6.50;99.90
27534;DHT22;14973;51.460;7.008;2023-02-01T08:16:22;6.50;99.90
27534;DHT22;14973;51.460;7.008;2023-02-01T08:18:49;6.50;99.90
27534;DHT22;14973;51.460;7.008;2023-02-01T08:21:17;6.50;99.90
27534;DHT22;14973;51.460;7.008;2023-02-01T08:23:43;6.50;99.90
27534;DHT22;14973;51.460;7.008;2023-02-01T08:26:12;6.50;99.90
27534;DHT22;14973;51.460;7.008;2023-02-01T08:28:41;6.60;99.90
27534;DHT22;14973;51.460;7.008;2023-02-01T08:31:13;6.60;99.90
27534;DHT22;14973;51.460;7.008;2023-02-01T08:33:40;6.50;99.90
27534;DHT22;14973;51.460;7.008;2023-02-01T08:36:08;6.50;99.90
27534;DHT22;14973;51.460;7.008;2023-02-01T08:38:36;6.60;99.90
27534;DHT22;14973;51.460;7.008;2023-02-01T08:41:16;6.60;99.90
27534;DHT22;14973;51.460;7.008;2023-02-01T08:43:42;6.50;99.90
27534;DHT22;14973;51.460;7.008;2023-02-01T08:46:09;6.60;99.90
27534;DHT22;14973;51.460;7.008;2023-02-01T08:48:35;6.60;99.90
27534;DHT22;14973;51.460;7.008;2023-02-01T08:51:06;6.70;99.90
27534;DHT22;14973;51.460;7.008;2023-02-01T08:53:32;6.70;99.90
27534;DHT22;14973;51.460;7.008;2023-02-01T08:55:58;6.70;99.90
27534;DHT22;14973;51.460;7.008;2023-02-01T08:58:24;6.70;99.90
27534;DHT22;14973;51.460;7.008;2023-02-01T09:00:50;6.70;99.90
27534;DHT22;14973;51.460;7.008;2023-02-01T09:03:16;6.90;99.90
27534;DHT22;14973;51.460;7.008;2023-02-01T09:05:42;6.90;99.90
27534;DHT22;14973;51.460;7.008;2023-02-01T09:08:08;6.80;99.90
27534;DHT22;14973;51.460;7.008;2023-02-01T09:10:34;6.80;99.90
27534;DHT22;14973;51.460;7.008;2023-02-01T09:13:01;6.80;99.90
27534;DHT22;14973;51.460;7.008;2023-02-01T09:15:28;6.80;99.90
27534;DHT22;14973;51.460;7.008;2023-02-01T09:17:54;6.70;99.90
27534;DHT22;14973;51.460;7.008;2023-02-01T09:20:19;6.80;99.90
27534;DHT22;14973;51.460;7.008;2023-02-01T09:22:50;6.80;99.90
27534;DHT22;14973;51.460;7.008;2023-02-01T09:25:16;6.90;99.90
27534;DHT22;14973;51.460;7.008;2023-02-01T09:27:42;7.00;99.90
27534;DHT22;14973;51.460;7.008;2023-02-01T09:30:08;7.10;99.90
27534;DHT22;14973;51.460;7.008;2023-02-01T09:32:35;7.00;99.90
27534;DHT22;14973;51.460;7.008;2023-02-01T09:35:01;7.10;99.90
27534;DHT22;14973;51.460;7.008;2023-02-01T09:37:27;7.00;99.90
27534;DHT22;14973;51.460;7.008;2023-02-01T09:39:53;7.10;99.90
27534;DHT22;14973;51.460;7.008;2023-02-01T09:45:24;7.20;99.90
27534;DHT22;14973;51.460;7.008;2023-02-01T09:48:00;7.30;99.90
27534;DHT22;14973;51.460;7.008;2023-02-01T09:50:43;7.30;99.90
27534;DHT22;14973;51.460;7.008;2023-02-01T09:53:12;7.30;99.90
27534;DHT22;14973;51.460;7.008;2023-02-01T09:55:49;7.40;99.90
27534;DHT22;14973;51.460;7.008;2023-02-01T09:58:22;7.40;99.90
27534;DHT22;14973;51.460;7.008;2023-02-01T10:00:59;7.60;99.90
27534;DHT22;14973;51.460;7.008;2023-02-01T10:03:28;7.80;99.90
27534;DHT22;14973;51.460;7.008;2023-02-01T10:12:00;7.90;99.90
27534;DHT22;14973;51.460;7.008;2023-02-01T10:15:52;7.90;99.90
27534;DHT22;14973;51.460;7.008;2023-02-01T10:20:25;7.80;99.90
27534;DHT22;14973;51.460;7.008;2023-02-01T10:26:08;8.00;99.90
27534;DHT22;14973;51.460;7.008;2023-02-01T10:28:38;8.10;99.90
27534;DHT22;14973;51.460;7.008;2023-02-01T10:31:05;8.00;99.90
27534;DHT22;14973;51.460;7.008;2023-02-01T10:33:42;8.20;99.90
27534;DHT22;14973;51.460;7.008;2023-02-01T10:36:15;8.20;99.90
27534;DHT22;14973;51.460;7.008;2023-02-01T10:38:43;8.10;99.90
27534;DHT22;14973;51.460;7.008;2023-02-01T10:41:13;8.00;99.90
27534;DHT22;14973;51.460;7.008;2023-02-01T10:43:40;7.80;99.90
27534;DHT22;14973;51.460;7.008;2023-02-01T10:46:07;7.70;99.90
27534;DHT22;14973;51.460;7.008;2023-02-01T10:48:34;7.70;99.90
27534;DHT22;14973;51.460;7.008;2023-02-01T10:51:05;7.70;99.90
27534;DHT22;14973;51.460;7.008;2023-02-01T10:56:28;7.60;99.90
27534;DHT22;14973;51.460;7.008;2023-02-01T10:59:04;7.60;99.90
27534;DHT22;14973;51.460;7.008;2023-02-01T11:01:44;7.70;99.90
27534;DHT22;14973;51.460;7.008;2023-02-01T11:04:19;7.80;99.90
27534;DHT22;14973;51.460;7.008;2023-02-01T11:06:53;7.90;99.90
27534;DHT22;14973;51.460;7.008;2023-02-01T11:09:24;7.80;99.90
27534;DHT22;14973;51.460;7.008;2023-02-01T11:14:20;7.80;99.90
27534;DHT22;14973;51.460;7.008;2023-02-01T11:19:45;7.90;99.90
27534;DHT22;14973;51.460;7.008;2023-02-01T11:22:12;8.00;99.90
27534;DHT22;14973;51.460;7.008;2023-02-01T11:24:40;8.00;99.90
27534;DHT22;14973;51.460;7.008;2023-02-01T11:27:16;8.00;99.90
27534;DHT22;14973;51.460;7.008;2023-02-01T11:29:45;8.10;99.90
27534;DHT22;14973;51.460;7.008;2023-02-01T11:32:13;8.10;99.90
27534;DHT22;14973;51.460;7.008;2023-02-01T11:34:45;7.90;99.90
27534;DHT22;14973;51.460;7.008;2023-02-01T11:37:31;7.90;99.90
27534;DHT22;14973;51.460;7.008;2023-02-01T11:40:00;8.00;99.90
27534;DHT22;14973;51.460;7.008;2023-02-01T11:42:27;8.00;99.90
27534;DHT22;14973;51.460;7.008;2023-02-01T11:45:20;8.00;99.90
27534;DHT22;14973;51.460;7.008;2023-02-01T11:47:46;8.00;99.90
27534;DHT22;14973;51.460;7.008;2023-02-01T11:50:17;8.00;99.90
27534;DHT22;14973;51.460;7.008;2023-02-01T11:58:42;7.80;99.90
27534;DHT22;14973;51.460;7.008;2023-02-01T12:07:18;7.40;99.90
27534;DHT22;14973;51.460;7.008;2023-02-01T12:12:24;7.40;99.90
27534;DHT22;14973;51.460;7.008;2023-02-01T12:17:52;7.30;99.90
27534;DHT22;14973;51.460;7.008;2023-02-01T12:20:36;7.30;99.90
27534;DHT22;14973;51.460;7.008;2023-02-01T12:34:29;7.40;99.90
27534;DHT22;14973;51.460;7.008;2023-02-01T12:43:03;7.60;99.90
27534;DHT22;14973;51.460;7.008;2023-02-01T12:45:40;7.60;99.90
27534;DHT22;14973;51.460;7.008;2023-02-01T12:48:29;7.60;99.90
27534;DHT22;14973;51.460;7.008;2023-02-01T12:51:01;7.60;99.90
27534;DHT22;14973;51.460;7.008;2023-02-01T12:53:31;7.70;99.90
27534;DHT22;14973;51.460;7.008;2023-02-01T12:56:04;7.70;99.90
27534;DHT22;14973;51.460;7.008;2023-02-01T12:58:35;7.70;99.90
27534;DHT22;14973;51.460;7.008;2023-02-01T13:04:02;7.70;99.90
27534;DHT22;14973;51.460;7.008;2023-02-01T13:06:39;7.70;99.90
27534;DHT22;14973;51.460;7.008;2023-02-01T13:09:09;7.70;99.90
27534;DHT22;14973;51.460;7.008;2023-02-01T13:11:44;7.70;99.90
27534;DHT22;14973;51.460;7.008;2023-02-01T13:14:36;7.70;99.90
27534;DHT22;14973;51.460;7.008;2023-02-01T13:17:10;7.60;99.90
27534;DHT22;14973;51.460;7.008;2023-02-01T13:22:29;7.60;99.90
27534;DHT22;14973;51.460;7.008;2023-02-01T13:27:37;7.60;99.90
27534;DHT22;14973;51.460;7.008;2023-02-01T13:30:16;7.70;99.90
27534;DHT22;14973;51.460;7.008;2023-02-01T13:35:39;7.70;99.90
27534;DHT22;14973;51.460;7.008;2023-02-01T13:38:29;7.70;99.90
27534;DHT22;14973;51.460;7.008;2023-02-01T13:43:51;7.80;99.90
27534;DHT22;14973;51.460;7.008;2023-02-01T13:46:19;7.80;99.90
27534;DHT22;14973;51.460;7.008;2023-02-01T13:48:52;7.90;99.90
27534;DHT22;14973;51.460;7.008;2023-02-01T13:51:36;7.90;99.90
27534;DHT22;14973;51.460;7.008;2023-02-01T13:54:03;8.00;99.90
27534;DHT22;14973;51.460;7.008;2023-02-01T13:56:42;8.00;99.90
27534;DHT22;14973;51.460;7.008;2023-02-01T14:10:52;8.00;99.90
27534;DHT22;14973;51.460;7.008;2023-02-01T14:13:37;8.00;99.90
27534;DHT22;14973;51.460;7.008;2023-02-01T14:21:31;8.00;99.90
27534;DHT22;14973;51.460;7.008;2023-02-01T14:24:15;8.10;99.90
27534;DHT22;14973;51.460;7.008;2023-02-01T14:27:28;8.10;99.90
27534;DHT22;14973;51.460;7.008;2023-02-01T14:29:36;8.00;99.90
27534;DHT22;14973;51.460;7.008;2023-02-01T14:32:22;8.00;99.90
27534;DHT22;14973;51.460;7.008;2023-02-01T14:34:55;8.00;99.90
27534;DHT22;14973;51.460;7.008;2023-02-01T14:37:23;8.00;99.90
27534;DHT22;14973;51.460;7.008;2023-02-01T14:47:45;8.10;99.90
27534;DHT22;14973;51.460;7.008;2023-02-01T14:53:30;8.20;99.90
27534;DHT22;14973;51.460;7.008;2023-02-01T14:55:55;8.20;99.90
27534;DHT22;14973;51.460;7.008;2023-02-01T15:04:05;8.10;99.90
27534;DHT22;14973;51.460;7.008;2023-02-01T15:06:54;8.10;99.90
27534;DHT22;14973;51.460;7.008;2023-02-01T15:12:08;8.10;99.90
27534;DHT22;14973;51.460;7.008;2023-02-01T15:14:43;8.10;99.90
27534;DHT22;14973;51.460;7.008;2023-02-01T15:17:21;8.10;99.90
27534;DHT22;14973;51.460;7.008;2023-02-01T15:19:59;8.20;99.90
27534;DHT22;14973;51.460;7.008;2023-02-01T15:22:26;8.20;99.90
27534;DHT22;14973;51.460;7.008;2023-02-01T15:24:53;8.10;99.90
27534;DHT22;14973;51.460;7.008;2023-02-01T15:27:20;8.20;99.90
27534;DHT22;14973;51.460;7.008;2023-02-01T15:29:45;8.10;99.90
27534;DHT22;14973;51.460;7.008;2023-02-01T15:32:35;8.20;99.90
27534;DHT22;14973;51.460;7.008;2023-02-01T15:35:01;8.30;99.90
27534;DHT22;14973;51.460;7.008;2023-02-01T15:37:28;8.30;99.90
27534;DHT22;14973;51.460;7.008;2023-02-01T15:40:17;8.30;99.90
27534;DHT22;14973;51.460;7.008;2023-02-01T15:42:56;8.30;99.90
27534;DHT22;14973;51.460;7.008;2023-02-01T15:45:26;8.30;99.90
27534;DHT22;14973;51.460;7.008;2023-02-01T15:47:54;8.20;99.90
27534;DHT22;14973;51.460;7.008;2023-02-01T15:50:21;8.30;99.90
27534;DHT22;14973;51.460;7.008;2023-02-01T15:52:50;8.30;99.90
27534;DHT22;14973;51.460;7.008;2023-02-01T15:55:36;8.20;99.90
27534;DHT22;14973;51.460;7.008;2023-02-01T15:58:21;8.20;99.90
27534;DHT22;14973;51.460;7.008;2023-02-01T16:00:50;8.20;99.90
27534;DHT22;14973;51.460;7.008;2023-02-01T16:03:32;8.20;99.90
27534;DHT22;14973;51.460;7.008;2023-02-01T16:06:05;8.20;99.90
27534;DHT22;14973;51.460;7.008;2023-02-01T16:08:31;8.20;99.90
27534;DHT22;14973;51.460;7.008;2023-02-01T16:11:14;8.20;99.90
27534;DHT22;14973;51.460;7.008;2023-02-01T16:13:40;8.20;99.90
27534;DHT22;14973;51.460;7.008;2023-02-01T16:16:08;8.10;99.90
27534;DHT22;14973;51.460;7.008;2023-02-01T16:18:42;8.20;99.90
27534;DHT22;14973;51.460;7.008;2023-02-01T16:21:08;8.20;99.90
27534;DHT22;14973;51.460;7.008;2023-02-01T16:23:35;8.20;99.90
27534;DHT22;14973;51.460;7.008;2023-02-01T16:26:01;8.20;99.90
27534;DHT22;14973;51.460;7.008;2023-02-01T16:28:27;8.10;99.90
27534;DHT22;14973;51.460;7.008;2023-02-01T16:30:53;8.10;99.90
27534;DHT22;14973;51.460;7.008;2023-02-01T16:33:20;7.90;99.90
27534;DHT22;14973;51.460;7.008;2023-02-01T16:35:50;7.80;99.90
27534;DHT22;14973;51.460;7.008;2023-02-01T16:38:18;7.70;99.90
27534;DHT22;14973;51.460;7.008;2023-02-01T16:40:47;7.60;99.90
27534;DHT22;14973;51.460;7.008;2023-02-01T16:43:21;7.50;99.90
27534;DHT22;14973;51.460;7.008;2023-02-01T16:45:48;7.50;99.90
27534;DHT22;14973;51.460;7.008;2023-02-01T16:48:24;7.50;99.90
27534;DHT22;14973;51.460;7.008;2023-02-01T16:50:53;7.50;99.90
27534;DHT22;14973;51.460;7.008;2023-02-01T16:53:20;7.50;99.90
27534;DHT22;14973;51.460;7.008;2023-02-01T16:55:46;7.70;99.90
27534;DHT22;14973;51.460;7.008;2023-02-01T16:58:16;7.60;99.90
27534;DHT22;14973;51.460;7.008;2023-02-01T17:00:42;7.60;99.90
27534;DHT22;14973;51.460;7.008;2023-02-01T17:03:10;7.70;99.90
27534;DHT22;14973;51.460;7.008;2023-02-01T17:05:36;7.70;99.90
27534;DHT22;14973;51.460;7.008;2023-02-01T17:08:05;7.60;99.90
27534;DHT22;14973;51.460;7.008;2023-02-01T17:10:32;7.70;99.90
27534;DHT22;14973;51.460;7.008;2023-02-01T17:12:57;7.70;99.90
27534;DHT22;14973;51.460;7.008;2023-02-01T17:15:31;7.70;99.90
27534;DHT22;14973;51.460;7.008;2023-02-01T17:17:59;7.70;99.90
27534;DHT22;14973;51.460;7.008;2023-02-01T17:20:29;7.70;99.90
27534;DHT22;14973;51.460;7.008;2023-02-01T17:22:57;7.70;99.90
27534;DHT22;14973;51.460;7.008;2023-02-01T17:25:23;7.70;99.90
27534;DHT22;14973;51.460;7.008;2023-02-01T17:27:50;7.70;99.90
27534;DHT22;14973;51.460;7.008;2023-02-01T17:30:16;7.70;99.90
27534;DHT22;14973;51.460;7.008;2023-02-01T17:32:42;7.70;99.90
27534;DHT22;14973;51.460;7.008;2023-02-01T17:35:24;7.80;99.90
27534;DHT22;14973;51.460;7.008;2023-02-01T17:37:51;7.80;99.90
27534;DHT22;14973;51.460;7.008;2023-02-01T17:40:17;7.80;99.90
27534;DHT22;14973;51.460;7.008;2023-02-01T17:42:43;7.80;99.90
27534;DHT22;14973;51.460;7.008;2023-02-01T17:45:36;7.80;99.90
27534;DHT22;14973;51.460;7.008;2023-02-01T17:48:04;7.90;99.90
27534;DHT22;14973;51.460;7.008;2023-02-01T17:50:32;7.90;99.90
27534;DHT22;14973;51.460;7.008;2023-02-01T17:52:59;7.90;99.90
27534;DHT22;14973;51.460;7.008;2023-02-01T17:55:25;7.90;99.90
27534;DHT22;14973;51.460;7.008;2023-02-01T17:57:51;7.90;99.90
27534;DHT22;14973;51.460;7.008;2023-02-01T18:00:18;7.90;99.90
27534;DHT22;14973;51.460;7.008;2023-02-01T18:02:44;7.90;99.90
27534;DHT22;14973;51.460;7.008;2023-02-01T18:05:40;7.80;99.90
27534;DHT22;14973;51.460;7.008;2023-02-01T18:08:07;7.90;99.90
27534;DHT22;14973;51.460;7.008;2023-02-01T18:10:34;7.90;99.90
27534;DHT22;14973;51.460;7.008;2023-02-01T18:13:01;7.90;99.90
27534;DHT22;14973;51.460;7.008;2023-02-01T18:15:29;7.90;99.90
27534;DHT22;14973;51.460;7.008;2023-02-01T18:17:55;7.90;99.90
27534;DHT22;14973;51.460;7.008;2023-02-01T18:20:23;7.90;99.90
27534;DHT22;14973;51.460;7.008;2023-02-01T18:22:50;7.90;99.90
27534;DHT22;14973;51.460;7.008;2023-02-01T18:25:24;7.80;99.90